Latest Weather Observations for Territory Grape Farm

IDD60801

Issued at 9:41 pm CST Friday 15 November 2019 (issued every 10 minutes, with the page automatically refreshed every 10 minutes)

About weather observations | Map of weather stations | Latest weather observations for NT | Other Formats
Station Details ID: 015643 Name: TERRITORY GRAPE FARM Lat: -22.45 Lon: 133.64 Height: 565.6 m
Data from the previous 72 hours. | See also: Recent months at Territory Grape Farm
Date/Time
CST
Temp
°C
App
Temp
°C
Dew
Point
°C
Rel
Hum
%
Delta-T
°C
Wind Press
QNH
hPa
Press
MSL
hPa
Rain since
9am
mm
Dir  Spd
km/h
Gust
km/h
Spd
kts
Gust
kts
15/09:30pm 25.2 19.5 -13.0 7 14.2 SSE 13 15 7 8 1017.1 1013.2 0.0
15/09:00pm 27.3 21.6 -13.4 6 15.4 SSE 13 15 7 8 1016.9 1013.0 0.0
15/08:30pm 28.2 22.5 -12.7 6 15.8 SSE 13 17 7 9 1016.6 1012.7 0.0
15/08:00pm 28.8 23.5 -12.3 6 16.1 SSE 11 15 6 8 1016.4 1012.5 0.0
15/07:30pm 29.4 24.4 -14.1 5 16.6 SSE 9 13 5 7 1015.8 1011.9 0.0
15/07:00pm 31.1 26.1 -12.9 5 17.5 SSE 9 17 5 9 1015.4 1011.5 0.0
15/06:30pm 32.8 26.6 -14.5 4 18.6 SSE 15 22 8 12 1015.0 1011.1 0.0
15/06:00pm 33.5 27.3 -14.0 4 19.0 S 15 26 8 14 1014.6 1010.6 0.0
15/05:30pm 34.2 28.4 -13.5 4 19.3 S 13 28 7 15 1014.2 1010.3 0.0
15/05:00pm 34.4 27.5 -13.4 4 19.4 S 19 32 10 17 1014.0 1010.1 0.0
15/04:30pm 34.6 27.5 -16.7 3 19.8 S 19 28 10 15 1014.0 1010.1 0.0
15/04:00pm 34.8 27.9 -13.1 4 19.6 SSE 19 30 10 16 1014.1 1010.2 0.0
15/03:30pm 34.7 27.8 -13.2 4 19.6 SSE 19 37 10 20 1014.2 1010.3 0.0
15/03:00pm 35.0 27.6 -13.0 4 19.7 S 22 43 12 23 1014.5 1010.5 0.0
15/02:30pm 33.9 26.4 -13.7 4 19.2 S 22 37 12 20 1014.9 1011.0 0.0
15/02:00pm 33.9 27.0 -13.7 4 19.2 S 19 28 10 15 1014.9 1011.0 0.0
15/01:30pm 34.6 28.1 -13.2 4 19.5 S 17 35 9 19 1015.1 1011.2 0.0
15/01:00pm 32.9 26.9 -11.7 5 18.4 S 15 30 8 16 1015.8 1011.9 0.0
15/12:30pm 33.4 27.4 -11.3 5 18.6 SE 15 28 8 15 1016.1 1012.2 0.0
15/12:00pm 32.8 26.2 -9.4 6 18.0 SSE 19 32 10 17 1016.8 1012.9 0.0
15/11:30am 31.4 25.1 -10.4 6 17.3 SE 17 24 9 13 1017.3 1013.4 0.0
15/11:00am 31.2 24.5 -10.6 6 17.3 ESE 19 26 10 14 1017.7 1013.8 0.0
15/10:30am 30.7 24.9 -9.0 7 16.8 SE 15 28 8 15 1018.0 1014.2 0.0
15/10:00am 30.3 25.2 -9.3 7 16.6 SE 11 20 6 11 1018.3 1014.4 0.0
15/09:30am 28.9 23.1 -8.6 8 15.7 ESE 15 24 8 13 1018.5 1014.6 0.0
15/09:00am 28.2 22.4 -9.1 8 15.4 ESE 15 22 8 12 1018.7 1014.8 0.0
15/08:30am 26.9 20.3 -8.6 9 14.6 ESE 19 26 10 14 1018.7 1014.8 0.0
15/08:00am 25.2 19.5 -7.3 11 13.5 E 15 20 8 11 1018.4 1014.5 0.0
15/07:30am 22.6 17.2 -8.2 12 12.2 ESE 13 17 7 9 1018.2 1014.3 0.0
15/07:00am 20.5 16.2 -8.8 13 11.3 ESE 7 9 4 5 1017.9 1014.1 0.0
15/06:30am 17.7 13.8 -11.0 13 10.2 SSE 4 6 2 3 1017.6 1013.7 0.0
15/06:00am 16.0 11.8 -10.6 15 9.3 SSE 6 7 3 4 1017.2 1013.3 0.0
15/05:30am 14.3 10.6 -13.7 13 9.0 SE 2 4 1 2 1017.0 1013.1 0.0
15/05:00am 15.8 11.5 -11.6 14 9.4 SE 6 6 3 3 1016.8 1012.9 0.0
15/04:30am 15.4 11.5 -11.1 15 9.1 ESE 4 6 2 3 1016.5 1012.6 0.0
15/04:00am 15.3 10.9 -12.9 13 9.4 ESE 6 6 3 3 1016.4 1012.5 0.0
15/03:30am 15.5 11.4 -13.7 12 9.5 SE 4 4 2 2 1016.4 1012.5 0.0
15/03:00am 17.3 13.3 -13.4 11 10.3 SE 4 6 2 3 1016.3 1012.3 0.0
15/02:30am 18.3 13.4 -11.6 12 10.6 SE 9 9 5 5 1016.1 1012.2 0.0
15/02:00am 18.8 13.6 -11.2 12 10.8 SE 11 13 6 7 1016.0 1012.1 0.0
15/01:30am 19.5 13.9 -11.7 11 11.2 SE 13 15 7 8 1016.0 1012.1 0.0
15/01:00am 19.5 14.5 -12.9 10 11.3 SE 9 11 5 6 1016.5 1012.6 0.0
15/12:30am 20.9 15.2 -11.8 10 11.9 SE 13 15 7 8 1016.7 1012.8 0.0
15/12:00am 20.2 15.0 -10.1 12 11.3 SE 11 11 6 6 1016.8 1012.9 0.0
 
Date/Time
CST
Temp
°C
App
Temp
°C
Dew
Point
°C
Rel
Hum
%
Delta-T
°C
Wind Press
QNH
hPa
Press
MSL
hPa
Rain since
9am
mm
Dir  Spd
km/h
Gust
km/h
Spd
kts
Gust
kts
14/11:30pm 20.7 15.5 -10.8 11 11.6 SE 11 13 6 7 1017.0 1013.1 0.0
14/11:00pm 22.4 17.3 -9.5 11 12.3 SE 11 13 6 7 1017.2 1013.3 0.0
14/10:30pm 24.0 18.3 -12.2 8 13.5 ESE 13 17 7 9 1017.2 1013.3 0.0
14/10:00pm 24.0 18.7 -12.2 8 13.5 E 11 13 6 7 1017.0 1013.1 0.0
14/09:30pm 24.5 19.2 -11.9 8 13.7 E 11 13 6 7 1016.7 1012.8 0.0
14/09:00pm 26.4 21.0 -14.0 6 15.0 E 11 15 6 8 1016.5 1012.6 0.0
14/08:30pm 26.7 21.3 -13.8 6 15.1 ENE 11 13 6 7 1016.3 1012.3 0.0
14/08:00pm 28.4 22.7 -12.6 6 15.9 ENE 13 15 7 8 1015.9 1012.0 0.0
14/07:30pm 29.1 23.8 -12.1 6 16.3 ENE 11 15 6 8 1015.6 1011.7 0.0
14/07:00pm 30.0 25.1 -11.4 6 16.7 E 9 11 5 6 1015.3 1011.4 0.0
14/06:30pm 32.0 27.1 -12.3 5 17.9 E 9 15 5 8 1015.1 1011.2 0.0
14/06:00pm 32.7 26.7 -11.8 5 18.3 SE 15 20 8 11 1014.8 1010.9 0.0
14/05:30pm 33.1 27.5 -11.5 5 18.5 E 13 24 7 13 1014.7 1010.8 0.0
14/05:00pm 33.7 28.1 -11.1 5 18.8 E 13 20 7 11 1014.7 1010.8 0.0
14/04:30pm 33.6 28.0 -11.2 5 18.7 E 13 20 7 11 1014.9 1011.0 0.0
14/04:00pm 33.6 29.1 -11.2 5 18.7 S 7 19 4 10 1015.1 1011.2 0.0
14/03:30pm 33.1 27.5 -11.5 5 18.5 E 13 24 7 13 1015.4 1011.5 0.0
14/03:00pm 32.7 27.4 -11.8 5 18.3 ESE 11 20 6 11 1015.8 1011.9 0.0
14/02:30pm 33.2 26.8 -11.5 5 18.5 E 17 26 9 14 1016.0 1012.1 0.0
14/02:00pm 32.2 26.7 -9.9 6 17.8 E 13 22 7 12 1016.7 1012.8 0.0
14/01:30pm 31.5 26.3 -10.4 6 17.4 SE 11 22 6 12 1017.3 1013.4 0.0
14/01:00pm 31.1 26.1 -8.7 7 17.0 SE 11 20 6 11 1017.8 1013.9 0.0
14/12:30pm 30.6 25.1 -9.1 7 16.7 E 13 22 7 12 1018.3 1014.4 0.0
14/12:00pm 29.2 23.4 -8.4 8 15.8 E 15 24 8 13 1018.7 1014.8 0.0
14/11:30am 29.0 23.0 -7.0 9 15.5 SE 17 28 9 15 1019.2 1015.3 0.0
14/11:00am 28.2 22.5 -7.6 9 15.2 ESE 15 30 8 16 1019.6 1015.8 0.0
14/10:30am 27.3 21.4 -5.7 11 14.3 ESE 17 30 9 16 1019.9 1016.1 0.0
14/10:00am 26.4 20.2 -5.3 12 13.8 ESE 19 32 10 17 1020.3 1016.4 0.0
14/09:30am 25.3 18.5 -5.1 13 13.1 ESE 22 41 12 22 1020.6 1016.7 0.0
14/09:00am 24.5 17.5 -3.8 15 12.4 E 24 33 13 18 1020.8 1016.9 0.0
14/08:30am 23.5 16.4 -4.6 15 12.0 ESE 24 37 13 20 1020.6 1016.7 0.0
14/08:00am 22.5 15.0 -4.5 16 11.5 ESE 26 37 14 20 1020.6 1016.7 0.0
14/07:30am 21.4 14.7 -4.6 17 10.9 ESE 22 30 12 16 1020.6 1016.7 0.0
14/07:00am 20.2 14.4 -4.8 18 10.4 SE 17 22 9 12 1020.4 1016.5 0.0
14/06:30am 18.4 13.7 -4.9 20 9.4 SE 11 13 6 7 1020.1 1016.2 0.0
14/06:00am 16.6 11.9 -4.6 23 8.5 SE 11 13 6 7 1019.5 1015.7 0.0
14/05:30am 17.2 13.3 -4.7 22 8.8 SE 7 9 4 5 1019.3 1015.4 0.0
14/05:00am 17.9 13.6 -5.3 20 9.3 SE 9 13 5 7 1018.9 1015.0 0.0
14/04:30am 17.6 13.8 -5.6 20 9.2 SSE 6 7 3 4 1018.7 1014.8 0.0
14/04:00am 17.6 14.2 -5.6 20 9.2 SE 4 6 2 3 1018.5 1014.6 0.0
14/03:30am 18.8 14.4 -6.0 18 9.9 SSE 9 11 5 6 1018.2 1014.3 0.0
14/03:00am 18.9 14.2 -5.2 19 9.8 SE 11 15 6 8 1018.2 1014.3 0.0
14/02:30am 20.0 15.3 -5.0 18 10.3 SE 11 13 6 7 1018.5 1014.6 0.0
14/02:00am 21.1 15.9 -5.7 16 11.0 SE 13 15 7 8 1018.5 1014.6 0.0
14/01:30am 21.1 15.9 -5.7 16 11.0 SE 13 15 7 8 1018.7 1014.8 0.0
14/01:00am 21.3 16.6 -5.5 16 11.1 SE 11 17 6 9 1019.1 1015.2 0.0
14/12:30am 21.9 17.2 -5.0 16 11.3 SE 11 15 6 8 1019.3 1015.4 0.0
14/12:00am 22.6 18.0 -4.5 16 11.5 SE 11 17 6 9 1019.6 1015.8 0.0
 
Date/Time
CST
Temp
°C
App
Temp
°C
Dew
Point
°C
Rel
Hum
%
Delta-T
°C
Wind Press
QNH
hPa
Press
MSL
hPa
Rain since
9am
mm
Dir  Spd
km/h
Gust
km/h
Spd
kts
Gust
kts
13/11:30pm 23.1 18.5 -4.1 16 11.7 SE 11 13 6 7 1019.7 1015.9 0.0
13/11:00pm 24.1 19.4 -5.0 14 12.5 SE 11 17 6 9 1019.8 1016.0 0.0
13/10:30pm 24.7 19.7 -4.6 14 12.7 SE 13 17 7 9 1019.8 1016.0 0.0
13/10:00pm 25.7 20.3 -4.7 13 13.3 SE 15 19 8 10 1019.5 1015.7 0.0
13/09:30pm 26.7 20.5 -5.0 12 13.9 SE 19 28 10 15 1019.2 1015.3 0.0
13/09:00pm 27.3 21.5 -4.6 12 14.1 SE 17 20 9 11 1018.8 1014.9 0.0
13/08:30pm 28.3 22.1 -4.9 11 14.7 SE 19 26 10 14 1018.5 1014.6 0.0
13/08:00pm 29.1 22.6 -5.6 10 15.3 SE 20 28 11 15 1017.9 1014.1 0.0
13/07:30pm 29.9 23.7 -5.0 10 15.7 SE 19 24 10 13 1017.5 1013.6 0.0
13/07:00pm 30.8 24.9 -5.7 9 16.3 SE 17 20 9 11 1017.1 1013.2 0.0
13/06:30pm 32.0 25.6 -4.8 9 16.9 SE 20 28 11 15 1016.6 1012.7 0.0
13/06:00pm 33.1 27.2 -5.5 8 17.6 ESE 17 24 9 13 1016.4 1012.5 0.0
13/05:30pm 33.6 27.7 -5.2 8 17.9 ESE 17 26 9 14 1016.1 1012.2 0.0
13/05:00pm 34.1 29.8 -4.8 8 18.1 SE 9 20 5 11 1015.9 1012.0 0.0
13/04:30pm 34.2 29.0 -6.5 7 18.4 SE 13 24 7 13 1016.0 1012.1 0.0
13/04:00pm 34.0 29.1 -6.6 7 18.4 ESE 11 22 6 12 1016.3 1012.3 0.0
13/03:30pm 34.2 28.8 -4.7 8 18.1 S 15 26 8 14 1016.5 1012.6 0.0
13/03:00pm 33.6 27.7 -5.2 8 17.9 SSE 17 26 9 14 1016.9 1013.0 0.0
13/02:30pm 32.9 27.4 -5.7 8 17.5 ESE 15 30 8 16 1017.1 1013.2 0.0
13/02:00pm 33.0 28.2 -5.6 8 17.6 SE 11 22 6 12 1017.4 1013.5 0.0
13/01:30pm 32.6 28.4 -4.3 9 17.1 SE 9 22 5 12 1017.7 1013.8 0.0
13/01:00pm 31.6 25.8 -5.1 9 16.7 E 17 26 9 14 1018.2 1014.3 0.0
13/12:30pm 30.5 24.7 -4.5 10 15.9 E 17 28 9 15 1018.7 1014.8 0.0
13/12:00pm 30.5 24.7 -4.5 10 15.9 ESE 17 30 9 16 1019.0 1015.1 0.0
13/11:30am 30.3 24.1 -3.4 11 15.6 ESE 20 32 11 17 1019.5 1015.7 0.0
13/11:00am 28.7 22.5 -3.5 12 14.7 SE 20 30 11 16 1019.9 1016.1 0.0
13/10:30am 28.7 22.6 -2.4 13 14.5 SE 20 30 11 16 1020.1 1016.2 0.0
13/10:00am 27.0 20.2 -1.8 15 13.4 ESE 24 32 13 17 1020.4 1016.5 0.0
13/09:30am 26.4 20.3 -2.3 15 13.1 SE 20 32 11 17 1020.5 1016.6 0.0
13/09:00am 25.6 18.9 -1.2 17 12.4 SE 24 35 13 19 1020.5 1016.6 0.0
13/08:30am 24.4 17.4 -0.7 19 11.6 SE 26 33 14 18 1020.4 1016.5 0.0
13/08:00am 23.5 16.1 -0.7 20 11.2 SE 28 37 15 20 1020.4 1016.5 0.0
13/07:30am 22.6 14.4 -0.8 21 10.7 SE 32 43 17 23 1020.1 1016.2 0.0
13/07:00am 22.0 15.4 -0.7 22 10.4 SE 24 33 13 18 1019.7 1015.9 0.0
13/06:30am 21.6 15.4 -0.4 23 10.0 SE 22 32 12 17 1019.4 1015.5 0.0
13/06:00am 21.4 15.5 -0.6 23 10.0 SE 20 32 11 17 1019.1 1015.2 0.0
13/05:30am 21.7 14.6 -0.9 22 10.2 SE 26 35 14 19 1018.7 1014.8 0.0
13/05:00am 22.0 14.6 -0.7 22 10.4 SE 28 37 15 20 1018.4 1014.5 0.0
13/04:30am 22.2 15.2 -0.5 22 10.4 SE 26 39 14 21 1018.0 1014.2 0.0
13/04:00am 22.7 14.5 -0.7 21 10.7 SE 32 41 17 22 1017.6 1013.7 0.0
13/03:30am 23.1 16.4 -1.1 20 11.0 SE 24 33 13 18 1017.7 1013.8 0.0
13/03:00am 23.4 17.1 -0.8 20 11.1 SE 22 33 12 18 1017.7 1013.8 0.0
13/02:30am 23.7 18.0 -0.6 20 11.3 SSE 19 24 10 13 1017.5 1013.6 0.0
13/02:00am 24.1 19.6 -0.2 20 11.4 SSE 13 19 7 10 1017.5 1013.6 0.0
13/01:30am 25.4 18.8 -0.6 18 12.2 SE 24 35 13 19 1017.4 1013.5 0.0
13/01:00am 26.2 18.5 0.0 18 12.5 SE 30 39 16 21 1017.5 1013.6 0.0
13/12:30am 27.2 19.0 -0.8 16 13.3 SE 32 43 17 23 1017.5 1013.6 0.0
13/12:00am 28.1 20.7 -0.9 15 13.8 SSE 28 41 15 22 1017.4 1013.5 0.0
 
Date/Time
CST
Temp
°C
App
Temp
°C
Dew
Point
°C
Rel
Hum
%
Delta-T
°C
Wind Press
QNH
hPa
Press
MSL
hPa
Rain since
9am
mm
Dir  Spd
km/h
Gust
km/h
Spd
kts
Gust
kts
12/11:30pm 29.0 22.0 -0.2 15 14.2 SE 26 39 14 21 1017.2 1013.3 0.0
12/11:00pm 29.5 22.8 -0.8 14 14.6 SE 24 35 13 19 1017.1 1013.2 0.0
12/10:30pm 30.1 23.0 -1.3 13 15.1 SE 26 33 14 18 1016.9 1013.0 0.0
12/10:00pm 30.0 23.8 -4.9 10 15.7 SE 19 24 10 13 1016.7 1012.8 0.0

Other formats

Comma delimited format used in spreadsheet applications
http://www.bom.gov.au/fwo/IDD60801/IDD60801.94328.axf

JavaScript Object Notation format (JSON) in row-major order
http://www.bom.gov.au/fwo/IDD60801/IDD60801.94328.json

Data quality

Most of these data are generated automatically and are frequently updated. Quality checks on data are not normally performed. It is possible for incorrect values to appear. Refer to information at About Latest Weather Observations and please check the disclaimer before using these data.